createdAt,value
2022-12-25T00:00:46.733Z,25.23
2022-12-25T00:03:49.093Z,22.83
2022-12-25T00:06:51.404Z,22.00
2022-12-25T00:09:53.346Z,22.20
2022-12-25T00:12:55.304Z,20.95
2022-12-25T00:15:57.669Z,23.20
2022-12-25T00:19:01.301Z,20.35
2022-12-25T00:22:03.252Z,21.70
2022-12-25T00:25:05.810Z,24.05
2022-12-25T00:28:08.113Z,24.77
2022-12-25T00:31:11.347Z,27.52
2022-12-25T00:34:13.348Z,28.17
2022-12-25T00:37:16.355Z,27.67
2022-12-25T00:40:18.354Z,25.38
2022-12-25T00:43:20.491Z,23.98
2022-12-25T00:46:22.882Z,22.73
2022-12-25T00:49:24.920Z,20.52
2022-12-25T00:52:26.825Z,25.33
2022-12-25T00:55:28.786Z,19.70
2022-12-25T00:58:31.106Z,23.35
2022-12-25T01:01:33.235Z,24.08
2022-12-25T01:04:35.760Z,23.05
2022-12-25T01:07:37.735Z,31.37
2022-12-25T01:10:39.649Z,36.75
2022-12-25T01:13:42.199Z,37.08
2022-12-25T01:16:44.564Z,36.73
2022-12-25T01:19:47.283Z,29.95
2022-12-25T01:22:49.293Z,33.15
2022-12-25T01:25:51.403Z,39.38
2022-12-25T01:28:53.439Z,37.42
2022-12-25T01:31:55.490Z,32.72
2022-12-25T01:34:57.588Z,32.35
2022-12-25T01:38:00.337Z,33.57
2022-12-25T01:41:02.281Z,32.35
2022-12-25T01:44:04.738Z,32.42
2022-12-25T01:47:06.939Z,34.50
2022-12-25T01:50:09.206Z,29.42
2022-12-25T01:53:11.307Z,27.88
2022-12-25T01:56:13.799Z,32.17
2022-12-25T01:59:16.445Z,27.23
2022-12-25T02:02:18.968Z,31.50
2022-12-25T02:05:20.963Z,28.38
2022-12-25T02:08:23.389Z,35.10
2022-12-25T02:11:44.366Z,36.25
2022-12-25T02:14:46.698Z,38.60
2022-12-25T02:17:56.625Z,35.30
2022-12-25T02:21:16.585Z,36.05
2022-12-25T02:24:21.964Z,34.30
2022-12-25T02:27:46.833Z,35.47
2022-12-25T02:30:53.890Z,33.03
2022-12-25T02:34:04.175Z,33.83
2022-12-25T02:37:12.555Z,31.25
2022-12-25T02:40:17.389Z,34.27
2022-12-25T02:43:39.529Z,36.30
2022-12-25T02:47:00.437Z,32.13
2022-12-25T02:50:21.026Z,29.43
2022-12-25T02:53:41.733Z,29.27
2022-12-25T02:57:02.895Z,28.60
2022-12-25T03:00:24.361Z,34.53
2022-12-25T03:03:45.700Z,31.35
2022-12-25T03:07:03.084Z,27.27
2022-12-25T03:10:25.114Z,27.65
2022-12-25T03:13:28.277Z,30.40
2022-12-25T03:16:49.325Z,27.50
2022-12-25T03:20:09.680Z,26.17
2022-12-25T03:23:30.827Z,28.40
2022-12-25T03:26:51.683Z,27.23
2022-12-25T03:30:12.732Z,24.85
2022-12-25T03:33:43.176Z,25.48
2022-12-25T03:37:09.666Z,23.52
2022-12-25T03:40:40.700Z,29.08
2022-12-25T03:44:06.898Z,30.70
2022-12-25T03:47:31.961Z,30.23
2022-12-25T03:50:53.172Z,31.38
2022-12-25T03:54:14.700Z,31.38
2022-12-25T03:57:35.672Z,30.80
2022-12-25T04:00:56.729Z,27.80
2022-12-25T04:04:17.264Z,27.33
2022-12-25T04:07:37.724Z,29.92
2022-12-25T04:10:58.341Z,25.58
2022-12-25T04:14:18.663Z,28.20
2022-12-25T04:17:39.565Z,24.13
2022-12-25T04:21:00.222Z,25.80
2022-12-25T04:24:20.963Z,18.95
2022-12-25T04:27:41.875Z,21.75
2022-12-25T04:31:02.721Z,28.53
2022-12-25T04:34:24.439Z,22.65
2022-12-25T04:37:26.792Z,21.75
2022-12-25T04:40:28.825Z,22.67
2022-12-25T04:43:30.803Z,24.83
2022-12-25T04:46:33.016Z,23.33
2022-12-25T04:49:35.556Z,24.77
2022-12-25T04:52:38.217Z,26.23
2022-12-25T04:55:40.209Z,22.05
2022-12-25T04:58:42.760Z,21.00
2022-12-25T05:01:45.197Z,21.30
2022-12-25T05:04:47.505Z,21.83
2022-12-25T05:07:49.465Z,24.52
2022-12-25T05:10:51.932Z,24.35
2022-12-25T05:13:53.905Z,22.05
2022-12-25T05:16:56.161Z,22.00
2022-12-25T05:20:01.817Z,24.40
2022-12-25T05:23:04.004Z,27.90
2022-12-25T05:26:06.679Z,31.52
2022-12-25T05:29:08.801Z,32.78
2022-12-25T05:32:11.629Z,29.67
2022-12-25T05:35:13.729Z,30.13
2022-12-25T05:38:15.729Z,27.65
2022-12-25T05:41:18.041Z,26.73
2022-12-25T05:44:20.560Z,25.48
2022-12-25T05:47:22.608Z,23.80
2022-12-25T05:50:24.771Z,22.90
2022-12-25T05:53:38.888Z,23.17
2022-12-25T05:56:40.955Z,23.00
2022-12-25T05:59:42.955Z,23.83
2022-12-25T06:02:45.772Z,18.90
2022-12-25T06:05:48.206Z,21.92
2022-12-25T06:08:50.165Z,21.42
2022-12-25T06:11:52.165Z,25.90
2022-12-25T06:14:54.153Z,24.10
2022-12-25T06:17:56.522Z,33.60
2022-12-25T06:20:58.907Z,31.38
2022-12-25T06:24:01.461Z,32.20
2022-12-25T06:27:04.015Z,32.55
2022-12-25T06:30:06.612Z,33.15
2022-12-25T06:33:08.779Z,35.73
2022-12-25T06:36:11.638Z,34.95
2022-12-25T06:39:13.660Z,35.00
2022-12-25T06:42:15.669Z,35.25
2022-12-25T06:45:18.076Z,31.15
2022-12-25T06:48:20.478Z,34.85
2022-12-25T06:51:23.523Z,37.33
2022-12-25T06:54:25.878Z,31.33
2022-12-25T06:57:27.904Z,35.72
2022-12-25T07:00:29.890Z,41.28
2022-12-25T07:03:31.919Z,42.30
2022-12-25T07:06:34.447Z,38.88
2022-12-25T07:09:38.885Z,38.47
2022-12-25T07:12:41.553Z,41.97
2022-12-25T07:15:43.516Z,40.15
2022-12-25T07:18:45.780Z,44.85
2022-12-25T07:21:47.908Z,41.40
2022-12-25T07:24:49.918Z,39.70
2022-12-25T07:27:52.013Z,39.50
2022-12-25T07:30:54.585Z,32.72
2022-12-25T07:33:56.526Z,31.10
2022-12-25T07:36:59.022Z,30.15
2022-12-25T07:40:01.093Z,27.80
2022-12-25T07:43:03.120Z,33.50
2022-12-25T07:46:05.462Z,30.15
2022-12-25T07:49:07.580Z,35.50
2022-12-25T07:52:09.696Z,32.67
2022-12-25T07:55:11.720Z,49.47
2022-12-25T07:58:16.061Z,48.22
2022-12-25T08:01:22.971Z,70.82
2022-12-25T08:04:25.517Z,97.53
2022-12-25T08:07:27.541Z,62.15
2022-12-25T08:10:29.516Z,51.85
2022-12-25T08:13:32.118Z,45.10
2022-12-25T08:16:34.320Z,50.42
2022-12-25T08:19:36.346Z,50.38
2022-12-25T08:22:38.250Z,44.13
2022-12-25T08:25:40.777Z,44.93
2022-12-25T08:28:42.852Z,44.00
2022-12-25T08:31:46.660Z,47.35
2022-12-25T08:34:49.393Z,48.63
2022-12-25T08:37:51.368Z,42.20
2022-12-25T08:40:53.661Z,45.38
2022-12-25T08:43:55.664Z,44.15
2022-12-25T08:46:57.657Z,41.28
2022-12-25T08:49:59.633Z,43.60
2022-12-25T08:53:02.513Z,44.85
2022-12-25T08:56:05.060Z,39.73
2022-12-25T08:59:07.029Z,39.03
2022-12-25T09:02:09.856Z,52.38
2022-12-25T09:05:12.347Z,53.13
2022-12-25T09:08:14.351Z,47.92
2022-12-25T09:11:16.615Z,37.65
2022-12-25T09:14:18.849Z,34.97
2022-12-25T09:17:21.255Z,30.87
2022-12-25T09:20:23.636Z,27.23
2022-12-25T09:23:32.035Z,32.80
2022-12-25T09:26:34.057Z,26.03
2022-12-25T09:29:36.527Z,29.60
2022-12-25T09:32:40.410Z,31.02
2022-12-25T09:35:42.422Z,36.03
2022-12-25T09:38:44.543Z,35.57
2022-12-25T09:41:56.708Z,34.58
2022-12-25T09:44:59.739Z,31.58
2022-12-25T09:48:02.280Z,34.08
2022-12-25T09:51:06.673Z,32.30
2022-12-25T09:54:18.414Z,31.00
2022-12-25T09:57:20.748Z,31.48
2022-12-25T10:00:26.187Z,28.75
2022-12-25T10:03:28.694Z,26.93
2022-12-25T10:06:34.404Z,26.33
2022-12-25T10:09:39.460Z,23.30
2022-12-25T10:12:59.592Z,26.70
2022-12-25T10:16:18.316Z,23.58
2022-12-25T10:19:35.454Z,24.13
2022-12-25T10:22:38.912Z,24.42
2022-12-25T10:25:41.297Z,23.63
2022-12-25T10:28:47.244Z,23.10
2022-12-25T10:31:50.177Z,24.47
2022-12-25T10:34:52.131Z,25.07
2022-12-25T10:38:01.794Z,21.85
2022-12-25T10:41:11.512Z,22.08
2022-12-25T10:44:21.129Z,23.58
2022-12-25T10:47:26.280Z,23.43
2022-12-25T10:50:28.788Z,23.50
2022-12-25T10:53:37.388Z,26.50
2022-12-25T10:56:39.634Z,25.65
2022-12-25T10:59:45.490Z,21.73
2022-12-25T11:02:47.873Z,22.57
2022-12-25T11:05:51.012Z,22.47
2022-12-25T11:09:02.422Z,24.80
2022-12-25T11:12:04.515Z,29.20
2022-12-25T11:15:23.609Z,21.45
2022-12-25T11:18:26.641Z,22.27
2022-12-25T11:21:29.232Z,25.23
2022-12-25T11:24:31.816Z,24.08
2022-12-25T11:27:33.828Z,23.73
2022-12-25T11:30:36.036Z,29.05
2022-12-25T11:33:39.225Z,24.00
2022-12-25T11:36:47.878Z,28.40
2022-12-25T11:39:50.257Z,22.92
2022-12-25T11:42:56.969Z,22.58
2022-12-25T11:46:04.372Z,23.73
2022-12-25T11:49:08.239Z,22.73
2022-12-25T11:52:10.381Z,20.03
2022-12-25T11:55:15.387Z,22.08
2022-12-25T11:58:22.799Z,18.55
2022-12-25T12:01:27.823Z,22.35
2022-12-25T12:04:40.339Z,17.43
2022-12-25T12:07:52.269Z,18.10
2022-12-25T12:10:57.743Z,19.60
2022-12-25T12:14:02.641Z,16.27
2022-12-25T12:17:05.213Z,16.67
2022-12-25T12:20:11.378Z,15.50
2022-12-25T12:23:14.130Z,18.67
2022-12-25T12:26:20.072Z,17.40
2022-12-25T12:29:27.034Z,17.65
2022-12-25T12:32:29.431Z,15.23
2022-12-25T12:35:32.535Z,17.07
2022-12-25T12:38:34.508Z,17.90
2022-12-25T12:41:46.496Z,11.13
2022-12-25T12:44:49.318Z,13.55
2022-12-25T12:47:51.493Z,14.15
2022-12-25T12:51:03.572Z,16.60
2022-12-25T12:54:06.656Z,12.60
2022-12-25T12:57:21.784Z,11.38
2022-12-25T13:00:23.778Z,13.02
2022-12-25T13:03:28.853Z,14.20
2022-12-25T13:07:03.258Z,13.10
2022-12-25T13:10:08.094Z,17.10
2022-12-25T13:13:15.391Z,17.65
2022-12-25T13:16:28.074Z,14.82
2022-12-25T13:19:30.266Z,16.38
2022-12-25T13:22:32.943Z,15.67
2022-12-25T13:25:35.354Z,18.03
2022-12-25T13:28:37.480Z,17.23
2022-12-25T13:31:39.699Z,18.35
2022-12-25T13:34:42.161Z,15.02
2022-12-25T13:37:44.419Z,16.40
2022-12-25T13:41:11.641Z,14.47
2022-12-25T13:44:19.503Z,18.85
2022-12-25T13:47:26.338Z,19.92
2022-12-25T13:50:29.397Z,21.13
2022-12-25T13:53:31.385Z,19.27
2022-12-25T13:56:33.448Z,24.33
2022-12-25T13:59:36.955Z,29.25
2022-12-25T14:02:39.543Z,29.33
2022-12-25T14:05:43.583Z,22.05
2022-12-25T14:08:45.800Z,21.10
2022-12-25T14:11:51.650Z,20.80
2022-12-25T14:14:53.589Z,19.52
2022-12-25T14:17:55.707Z,19.35
2022-12-25T14:21:08.157Z,22.70
2022-12-25T14:24:14.046Z,21.33
2022-12-25T14:27:26.324Z,21.07
2022-12-25T14:30:28.874Z,25.00
2022-12-25T14:33:33.025Z,18.63
2022-12-25T14:36:35.648Z,17.67
2022-12-25T14:39:37.895Z,21.97
2022-12-25T14:42:39.854Z,20.57
2022-12-25T14:45:41.838Z,20.98
2022-12-25T14:48:43.891Z,19.63
2022-12-25T14:51:45.883Z,24.15
2022-12-25T14:54:48.435Z,20.77
2022-12-25T14:57:52.580Z,18.67
2022-12-25T15:01:04.077Z,24.48
2022-12-25T15:04:13.803Z,23.02
2022-12-25T15:07:24.396Z,20.92
2022-12-25T15:13:54.567Z,18.87
2022-12-25T15:16:57.478Z,19.83
2022-12-25T15:19:59.964Z,26.67
2022-12-25T15:23:19.294Z,25.02
2022-12-25T15:26:22.267Z,26.43
2022-12-25T15:29:59.763Z,23.07
2022-12-25T15:32:46.979Z,25.65
2022-12-25T15:35:49.144Z,23.65
2022-12-25T15:38:51.269Z,29.10
2022-12-25T15:42:11.616Z,38.30
2022-12-25T15:45:20.964Z,41.90
2022-12-25T15:48:22.984Z,72.10
2022-12-25T15:51:24.960Z,87.47
2022-12-25T15:54:27.001Z,78.97
2022-12-25T15:57:28.897Z,165.00
2022-12-25T16:00:31.282Z,153.43
2022-12-25T16:03:33.402Z,138.48
2022-12-25T16:06:35.390Z,151.32
2022-12-25T16:09:37.589Z,120.93
2022-12-25T16:12:43.458Z,50.10
2022-12-25T16:15:46.040Z,43.50
2022-12-25T16:18:48.160Z,46.88
2022-12-25T16:21:50.236Z,43.80
2022-12-25T16:24:52.760Z,44.97
2022-12-25T16:27:54.724Z,45.60
2022-12-25T16:30:56.822Z,44.17
2022-12-25T16:33:58.856Z,58.13
2022-12-25T16:37:01.341Z,56.63
2022-12-25T16:40:03.445Z,51.13
2022-12-25T16:43:05.896Z,53.97
2022-12-25T16:46:11.604Z,53.60
2022-12-25T16:49:14.025Z,43.88
2022-12-25T16:52:16.048Z,37.22
2022-12-25T16:55:18.084Z,32.97
2022-12-25T16:58:20.064Z,32.63
2022-12-25T17:01:22.976Z,29.73
2022-12-25T17:04:25.399Z,30.33
2022-12-25T17:07:27.996Z,26.50
2022-12-25T17:10:30.004Z,33.05
2022-12-25T17:13:32.378Z,30.07
2022-12-25T17:16:35.101Z,31.87
2022-12-25T17:19:38.156Z,28.60
2022-12-25T17:22:40.473Z,29.65
2022-12-25T17:25:42.519Z,30.00
2022-12-25T17:28:45.023Z,27.40
2022-12-25T17:31:47.430Z,30.47
2022-12-25T17:34:49.592Z,28.98
2022-12-25T17:37:52.038Z,34.65
2022-12-25T17:40:58.069Z,28.92
2022-12-25T17:44:00.141Z,29.07
2022-12-25T17:47:02.199Z,30.63
2022-12-25T17:50:04.989Z,24.77
2022-12-25T17:53:07.319Z,27.38
2022-12-25T17:56:09.845Z,30.02
2022-12-25T17:59:17.902Z,30.23
2022-12-25T18:02:20.391Z,31.87
2022-12-25T18:05:22.401Z,24.60
2022-12-25T18:08:24.795Z,25.55
2022-12-25T18:11:33.788Z,28.33
2022-12-25T18:14:38.879Z,25.47
2022-12-25T18:17:41.079Z,28.70
2022-12-25T18:20:43.464Z,22.05
2022-12-25T18:23:46.552Z,23.13
2022-12-25T18:26:49.229Z,22.88
2022-12-25T18:29:52.906Z,22.77
2022-12-25T18:32:55.254Z,20.70
2022-12-25T18:35:57.757Z,22.98
2022-12-25T18:39:00.269Z,24.10
2022-12-25T18:42:20.988Z,22.45
2022-12-25T18:45:22.932Z,21.60
2022-12-25T18:48:24.890Z,25.30
2022-12-25T18:51:34.753Z,26.40
2022-12-25T18:54:38.756Z,28.00
2022-12-25T18:57:41.096Z,30.55
2022-12-25T19:00:43.104Z,24.77
2022-12-25T19:03:45.375Z,22.60
2022-12-25T19:06:49.332Z,24.30
2022-12-25T19:09:51.456Z,25.75
2022-12-25T19:12:53.501Z,24.98
2022-12-25T19:15:58.104Z,25.80
2022-12-25T19:19:00.231Z,23.20
2022-12-25T19:22:02.471Z,26.33
2022-12-25T19:25:04.779Z,30.27
2022-12-25T19:28:06.802Z,23.08
2022-12-25T19:31:09.323Z,24.23
2022-12-25T19:34:13.017Z,22.43
2022-12-25T19:37:15.321Z,24.27
2022-12-25T19:40:17.772Z,24.05
2022-12-25T19:43:19.777Z,23.20
2022-12-25T19:46:22.731Z,22.93
2022-12-25T19:49:24.977Z,23.77
2022-12-25T19:52:27.380Z,20.77
2022-12-25T19:55:31.654Z,15.65
2022-12-25T19:58:33.700Z,21.60
2022-12-25T20:01:35.734Z,20.80
2022-12-25T20:04:38.171Z,23.10
2022-12-25T20:07:40.123Z,24.10
2022-12-25T20:10:43.801Z,20.75
2022-12-25T20:13:46.230Z,19.25
2022-12-25T20:16:48.320Z,16.10
2022-12-25T20:19:50.724Z,16.43
2022-12-25T20:22:52.767Z,18.60
2022-12-25T20:25:59.691Z,18.98
2022-12-25T20:29:03.224Z,13.57
2022-12-25T20:32:06.442Z,14.97
2022-12-25T20:35:09.315Z,14.17
2022-12-25T20:38:11.696Z,15.90
2022-12-25T20:41:30.577Z,16.02
2022-12-25T20:44:32.798Z,19.60
2022-12-25T20:47:35.001Z,19.63
2022-12-25T20:50:36.941Z,18.57
2022-12-25T20:53:39.079Z,17.23
2022-12-25T20:56:41.215Z,14.57
2022-12-25T20:59:43.409Z,16.42
2022-12-25T21:02:45.586Z,17.93
2022-12-25T21:05:54.233Z,15.83
2022-12-25T21:08:56.632Z,15.65
2022-12-25T21:11:59.134Z,16.08
2022-12-25T21:15:01.100Z,16.73
2022-12-25T21:18:03.970Z,15.70
2022-12-25T21:21:07.556Z,15.73
2022-12-25T21:24:10.536Z,16.02
2022-12-25T21:27:13.188Z,18.10
2022-12-25T21:30:16.102Z,17.48
2022-12-25T21:33:36.709Z,16.50
2022-12-25T21:36:39.993Z,16.67
2022-12-25T21:39:41.963Z,17.05
2022-12-25T21:42:46.167Z,16.25
2022-12-25T21:45:48.301Z,17.08
2022-12-25T21:48:50.369Z,18.93
2022-12-25T21:52:07.863Z,16.13
2022-12-25T21:55:09.892Z,17.63
2022-12-25T21:58:11.915Z,14.90
2022-12-25T22:01:16.967Z,17.88
2022-12-25T22:04:20.534Z,16.93
2022-12-25T22:07:22.604Z,18.60
2022-12-25T22:10:24.666Z,20.42
2022-12-25T22:13:45.413Z,19.35
2022-12-25T22:17:06.691Z,21.40
2022-12-25T22:20:10.133Z,22.40
2022-12-25T22:23:14.430Z,19.93
2022-12-25T22:26:20.779Z,21.15
2022-12-25T22:29:23.244Z,21.70
2022-12-25T22:32:25.889Z,24.23
2022-12-25T22:35:27.921Z,22.03
2022-12-25T22:38:30.442Z,23.27
2022-12-25T22:41:33.885Z,24.70
2022-12-25T22:44:36.049Z,26.23
2022-12-25T22:47:38.035Z,27.23
2022-12-25T22:50:40.392Z,31.97
2022-12-25T22:53:42.357Z,30.00
2022-12-25T22:56:44.635Z,29.25
2022-12-25T22:59:46.671Z,29.00
2022-12-25T23:02:48.976Z,26.77
2022-12-25T23:05:55.102Z,30.97
2022-12-25T23:08:57.586Z,28.88
2022-12-25T23:11:59.566Z,32.55
2022-12-25T23:15:01.527Z,29.65
2022-12-25T23:18:28.908Z,29.73
2022-12-25T23:21:49.366Z,30.20
2022-12-25T23:25:10.400Z,28.58
2022-12-25T23:28:12.303Z,34.92
2022-12-25T23:31:14.401Z,31.07
2022-12-25T23:34:16.377Z,34.63
2022-12-25T23:37:18.833Z,32.13
2022-12-25T23:40:20.890Z,28.90
2022-12-25T23:43:23.003Z,35.17
2022-12-25T23:46:25.261Z,36.67
2022-12-25T23:49:27.693Z,33.92
2022-12-25T23:52:30.113Z,37.47
2022-12-25T23:55:32.996Z,32.70
2022-12-25T23:58:35.097Z,37.53
